Details for Transavia (Netherlands) at EHEH




Go Back


Latest METAR
Local Time

EHEH 241325Z AUTO 06016KT 020V100 9999 BKN220 OVC290 04/M09 Q1024 BLU 06013G25KT CAVOK

24/02/2018, 14:56:01

Description
Results
Transavia (Netherlands) Logo
Number of Pilots based at EHEH
0 Pilots Based here
Number of Transavia (Netherlands) Flights Departed from EHEH
5 Flights Departed
Number of Transavia (Netherlands) Flights Arrived at EHEH
3 Flights Arrived
Number of Transavia (Netherlands) Schedules Departing from EHEH
61 Schedules
Number of Transavia (Netherlands) Schedules Arriving at EHEH
57 Schedules
Number of Transavia (Netherlands) Schedules Departing from EHEH availible today
14 Schedules Today
Number of Transavia (Netherlands) Schedules Arriving at EHEH availible today
14 Schedules Today
Average Landing Rate at EHEH
-146 fpm
Transavia (Netherlands) Average Landing Rate at EHEH
-159 fpm
Total Fuel Purchased at EHEH by Transavia (Netherlands)
16,238.15 kgs / 35,798.63 lbs

Pilots Based at EHEH


Pilot ID
Pilot Name
Pilot Rank
No. of Flights
No. of Flying Hours
There are no pilots assigned to this hub!   Will you be the first?
Content